createdAt,value
2017-08-02T00:00:02.009Z,16
2017-08-02T00:05:01.524Z,16
2017-08-02T00:10:01.965Z,16
2017-08-02T00:15:02.152Z,15.9
2017-08-02T00:20:02.124Z,15.8
2017-08-02T00:25:01.320Z,15.8
2017-08-02T00:30:02.094Z,15.7
2017-08-02T00:35:01.661Z,15.6
2017-08-02T00:40:01.481Z,15.6
2017-08-02T00:45:02.028Z,15.6
2017-08-02T00:50:01.823Z,15.3
2017-08-02T00:55:02.057Z,15.3
2017-08-02T01:00:01.179Z,15.2
2017-08-02T01:05:01.394Z,15
2017-08-02T01:10:02.037Z,15
2017-08-02T01:15:01.296Z,15
2017-08-02T01:20:01.558Z,15
2017-08-02T01:25:01.237Z,15
2017-08-02T01:30:02.065Z,15
2017-08-02T01:35:01.528Z,15
2017-08-02T01:40:01.454Z,15
2017-08-02T01:45:02.028Z,15
2017-08-02T01:50:01.765Z,15
2017-08-02T01:55:01.260Z,15
2017-08-02T02:00:01.392Z,15
2017-08-02T02:05:01.539Z,15
2017-08-02T02:10:01.575Z,15
2017-08-02T02:15:02.090Z,15
2017-08-02T02:20:01.876Z,15
2017-08-02T02:25:02.125Z,14.9
2017-08-02T02:30:01.454Z,14.8
2017-08-02T02:35:01.410Z,14.8
2017-08-02T02:40:01.748Z,14.7
2017-08-02T02:45:01.770Z,14.6
2017-08-02T02:50:01.619Z,14.6
2017-08-02T02:55:01.647Z,14.6
2017-08-02T03:00:01.670Z,14.6
2017-08-02T03:05:01.469Z,14.5
2017-08-02T03:10:01.242Z,14.5
2017-08-02T03:15:01.549Z,14.4
2017-08-02T03:20:01.192Z,14.4
2017-08-02T03:25:01.203Z,14.4
2017-08-02T03:30:01.246Z,14.4
2017-08-02T03:35:01.434Z,14.4
2017-08-02T03:40:01.499Z,14.4
2017-08-02T03:45:02.078Z,14.4
2017-08-02T03:50:02.031Z,14.4
2017-08-02T03:55:02.008Z,14.4
2017-08-02T04:00:02.100Z,14.4
2017-08-02T04:05:02.141Z,14.4
2017-08-02T04:10:02.046Z,14.4
2017-08-02T04:15:01.248Z,14.4
2017-08-02T04:20:02.001Z,14.4
2017-08-02T04:25:01.849Z,14.5
2017-08-02T04:30:01.467Z,14.5
2017-08-02T04:35:01.982Z,14.5
2017-08-02T04:40:01.673Z,14.5
2017-08-02T04:45:01.232Z,14.5
2017-08-02T04:50:01.227Z,14.5
2017-08-02T04:55:02.010Z,14.6
2017-08-02T05:00:02.068Z,14.7
2017-08-02T05:05:01.591Z,14.8
2017-08-02T05:10:01.381Z,14.8
2017-08-02T05:15:01.516Z,15
2017-08-02T05:20:01.539Z,15
2017-08-02T05:25:01.982Z,15
2017-08-02T05:30:01.736Z,15
2017-08-02T05:35:01.952Z,15
2017-08-02T05:40:01.972Z,15
2017-08-02T05:45:01.612Z,15
2017-08-02T05:50:01.578Z,15
2017-08-02T05:55:01.202Z,15.5
2017-08-02T06:00:01.293Z,15.6
2017-08-02T06:05:01.961Z,15.6
2017-08-02T06:10:02.203Z,15.7
2017-08-02T06:15:01.138Z,15.8
2017-08-02T06:20:01.917Z,15.8
2017-08-02T06:25:02.088Z,15.8
2017-08-02T06:30:01.209Z,16.2
2017-08-02T06:35:02.061Z,16.2
2017-08-02T06:40:01.865Z,16.4
2017-08-02T06:45:01.652Z,16.4
2017-08-02T06:50:01.646Z,16.8
2017-08-02T06:55:01.438Z,17
2017-08-02T07:00:01.657Z,17.2
2017-08-02T07:05:02.084Z,17.2
2017-08-02T07:10:02.172Z,17.5
2017-08-02T07:15:01.312Z,17.7
2017-08-02T07:20:02.081Z,17.8
2017-08-02T07:25:02.222Z,18.2
2017-08-02T07:30:01.275Z,18.3
2017-08-02T07:35:01.770Z,18.6
2017-08-02T07:40:01.559Z,18.6
2017-08-02T07:45:01.710Z,18.8
2017-08-02T07:50:01.711Z,18.9
2017-08-02T07:55:01.986Z,19.2
2017-08-02T08:00:02.045Z,19.2
2017-08-02T08:05:01.814Z,19.5
2017-08-02T08:10:01.702Z,19.5
2017-08-02T08:15:01.906Z,19.9
2017-08-02T08:20:01.558Z,20.1
2017-08-02T08:25:01.803Z,20.2
2017-08-02T08:30:01.906Z,20.2
2017-08-02T08:35:01.289Z,20.2
2017-08-02T08:40:02.081Z,20.8
2017-08-02T08:45:02.044Z,20.8
2017-08-02T08:50:02.047Z,20.8
2017-08-02T08:55:01.340Z,21.4
2017-08-02T09:00:02.092Z,21.4
2017-08-02T09:05:01.408Z,21.8
2017-08-02T09:10:01.449Z,21.8
2017-08-02T09:15:01.817Z,22.2
2017-08-02T09:20:01.374Z,22.2
2017-08-02T09:25:01.428Z,22
2017-08-02T09:30:01.701Z,22
2017-08-02T09:35:01.694Z,22.1
2017-08-02T09:40:01.467Z,22.1
2017-08-02T09:45:01.681Z,22.1
2017-08-02T09:50:01.872Z,22.6
2017-08-02T09:55:01.251Z,22.6
2017-08-02T10:00:01.620Z,22.8
2017-08-02T10:05:01.947Z,22.8
2017-08-02T10:10:01.781Z,22.8
2017-08-02T10:15:01.339Z,22.8
2017-08-02T10:20:02.062Z,22.8
2017-08-02T10:25:01.822Z,23.3
2017-08-02T10:30:01.261Z,23.3
2017-08-02T10:35:01.224Z,23.3
2017-08-02T10:40:01.948Z,23.3
2017-08-02T10:45:01.850Z,23.4
2017-08-02T10:50:01.858Z,23.5
2017-08-02T10:55:01.405Z,23.5
2017-08-02T11:00:01.733Z,23.5
2017-08-02T11:05:01.644Z,23.5
2017-08-02T11:10:01.457Z,23.7
2017-08-02T11:15:01.647Z,23.8
2017-08-02T11:20:01.315Z,23.6
2017-08-02T11:25:01.919Z,23.6
2017-08-02T11:30:01.200Z,23.2
2017-08-02T11:35:01.986Z,23.2
2017-08-02T11:40:01.755Z,23
2017-08-02T11:45:01.441Z,23
2017-08-02T11:50:01.464Z,22.7
2017-08-02T11:55:01.275Z,22.7
2017-08-02T12:00:01.768Z,22.7
2017-08-02T12:05:01.273Z,22.7
2017-08-02T12:10:01.237Z,22.7
2017-08-02T12:15:01.391Z,22.7
2017-08-02T12:20:02.096Z,22.2
2017-08-02T12:25:02.029Z,22.2
2017-08-02T12:30:01.583Z,22
2017-08-02T12:35:01.924Z,22
2017-08-02T12:40:01.672Z,22
2017-08-02T12:45:01.467Z,22
2017-08-02T12:50:01.354Z,22
2017-08-02T12:55:01.287Z,22.1
2017-08-02T13:00:01.755Z,22.1
2017-08-02T13:05:02.171Z,22.2
2017-08-02T13:10:01.338Z,22.2
2017-08-02T13:15:01.613Z,22.2
2017-08-02T13:20:01.778Z,22.5
2017-08-02T13:25:01.948Z,22.5
2017-08-02T13:30:01.529Z,22.5
2017-08-02T13:35:02.137Z,22.7
2017-08-02T13:40:02.081Z,22.8
2017-08-02T13:45:01.190Z,22.8
2017-08-02T13:50:01.765Z,22.8
2017-08-02T13:55:02.162Z,22.8
2017-08-02T14:00:01.940Z,22.8
2017-08-02T14:05:01.279Z,22.8
2017-08-02T14:10:01.589Z,22.8
2017-08-02T14:15:01.587Z,22.8
2017-08-02T14:20:01.367Z,22.8
2017-08-02T14:25:01.598Z,22.6
2017-08-02T14:30:01.644Z,22.6
2017-08-02T14:35:01.848Z,22.6
2017-08-02T14:40:01.660Z,22.6
2017-08-02T14:45:02.099Z,22.6
2017-08-02T14:50:02.034Z,22.6
2017-08-02T14:55:01.822Z,22.6
2017-08-02T15:00:01.956Z,22.6
2017-08-02T15:05:02.029Z,22.4
2017-08-02T15:10:01.289Z,22.4
2017-08-02T15:15:01.767Z,22.2
2017-08-02T15:20:01.563Z,21.9
2017-08-02T15:25:01.979Z,21.9
2017-08-02T15:30:02.084Z,21.4
2017-08-02T15:35:01.695Z,21.4
2017-08-02T15:40:01.477Z,20.7
2017-08-02T15:45:01.647Z,20.4
2017-08-02T15:50:01.589Z,20.4
2017-08-02T15:55:01.986Z,20.2
2017-08-02T16:00:02.198Z,20.2
2017-08-02T16:05:02.157Z,20.2
2017-08-02T16:10:01.234Z,20.2
2017-08-02T16:15:01.862Z,20.2
2017-08-02T16:20:01.686Z,20.2
2017-08-02T16:25:02.259Z,20.2
2017-08-02T16:30:01.273Z,20.2
2017-08-02T16:35:02.286Z,20.2
2017-08-02T16:40:01.444Z,20.2
2017-08-02T16:45:01.744Z,20.2
2017-08-02T16:50:01.699Z,20.2
2017-08-02T16:55:02.162Z,20.3
2017-08-02T17:00:01.191Z,20.4
2017-08-02T17:05:01.859Z,20.4
2017-08-02T17:10:01.552Z,20.4
2017-08-02T17:15:01.488Z,20.4
2017-08-02T17:20:01.678Z,20.4
2017-08-02T17:25:01.959Z,20.5
2017-08-02T17:30:01.398Z,20.5
2017-08-02T17:35:02.185Z,20.5
2017-08-02T17:40:02.004Z,20.6
2017-08-02T17:45:01.776Z,20.6
2017-08-02T17:50:02.059Z,20.6
2017-08-02T17:55:01.615Z,20.7
2017-08-02T18:00:01.274Z,20.6
2017-08-02T18:05:02.388Z,20.7
2017-08-02T18:10:02.009Z,20.7
2017-08-02T18:15:01.239Z,20.7
2017-08-02T18:20:02.034Z,20.7
2017-08-02T18:25:01.218Z,20.6
2017-08-02T18:30:01.556Z,20.6
2017-08-02T18:35:01.702Z,20.4
2017-08-02T18:40:02.060Z,20.4
2017-08-02T18:45:02.091Z,20.2
2017-08-02T18:50:01.142Z,20.2
2017-08-02T18:55:01.694Z,20.2
2017-08-02T19:00:02.068Z,19.9
2017-08-02T19:05:01.606Z,19.7
2017-08-02T19:10:02.374Z,19.6
2017-08-02T19:15:01.155Z,19.5
2017-08-02T19:20:01.563Z,19.3
2017-08-02T19:25:01.479Z,19.1
2017-08-02T19:30:01.525Z,19.1
2017-08-02T19:35:01.202Z,19
2017-08-02T19:40:01.274Z,18.8
2017-08-02T19:45:01.394Z,18.8
2017-08-02T19:50:02.147Z,18.7
2017-08-02T19:55:01.365Z,18.6
2017-08-02T20:00:01.502Z,18.4
2017-08-02T20:05:01.474Z,18.4
2017-08-02T20:10:01.563Z,18.2
2017-08-02T20:15:01.440Z,18.1
2017-08-02T20:20:01.277Z,18
2017-08-02T20:25:01.742Z,18
2017-08-02T20:30:02.063Z,17.8
2017-08-02T20:35:01.953Z,17.8
2017-08-02T20:40:01.767Z,17.7
2017-08-02T20:45:01.598Z,17.6
2017-08-02T20:50:01.261Z,17.5
2017-08-02T20:55:01.711Z,17.5
2017-08-02T21:00:01.752Z,17.4
2017-08-02T21:05:01.281Z,17.3
2017-08-02T21:10:01.236Z,17.3
2017-08-02T21:15:01.467Z,17.2
2017-08-02T21:20:01.350Z,17.2
2017-08-02T21:25:01.529Z,17.2
2017-08-02T21:30:01.585Z,17.2
2017-08-02T21:35:01.720Z,17.2
2017-08-02T21:40:01.588Z,17.2
2017-08-02T21:45:01.237Z,17.2
2017-08-02T21:50:01.937Z,17.2
2017-08-02T21:55:01.417Z,17.2
2017-08-02T22:00:01.548Z,17.2
2017-08-02T22:05:01.696Z,17.2
2017-08-02T22:10:01.414Z,17.2
2017-08-02T22:15:01.918Z,17.3
2017-08-02T22:20:02.041Z,17.3
2017-08-02T22:25:01.958Z,17.3
2017-08-02T22:30:01.844Z,17.3
2017-08-02T22:35:01.634Z,17.3
2017-08-02T22:40:01.466Z,17.3
2017-08-02T22:45:01.192Z,17.3
2017-08-02T22:50:01.982Z,17.3
2017-08-02T22:55:01.669Z,17.3
2017-08-02T23:00:01.367Z,17.4
2017-08-02T23:05:02.079Z,17.4
2017-08-02T23:10:01.946Z,17.5
2017-08-02T23:15:02.160Z,17.6
2017-08-02T23:20:01.836Z,17.6
2017-08-02T23:25:02.008Z,17.7
2017-08-02T23:30:01.825Z,17.8
2017-08-02T23:35:01.395Z,17.8
2017-08-02T23:40:01.298Z,17.9
2017-08-02T23:45:01.344Z,18
2017-08-02T23:50:01.190Z,18
2017-08-02T23:55:01.863Z,18
